Torm Lilly — OUPJ2 — position and weather

sailwx.info

Track history (hours):
 
Tides and Currents Weather Stations Pressure Air Temp Water Temp Dewpoint Dewpoint Depression Visibility Wind Speed Wind Dir Waves Ship Positions

Torm Lilly

Last reported at 2018-Jun-21 20:01 UTC. Time now 2018-Jun-22 07:45 UTC.
Position N 51°41' E 002°30'.

Length 183 m; draft 7.6 m.

Type: Ship. MMSI: 220634000.

Date/timePositionNaut miles runAvg speedWind from/ knotsBaromVisibWave heightAir tempDewpointWater temp
2018-Jun-21 20:01N 51°41' E 002°30'713.2
2018-Jun-21 19:29N 51°36' E 002°23'612.7
2018-Jun-21 19:00N 51°31' E 002°17'612.5
2018-Jun-21 18:30N 51°26' E 002°10'611.8
2018-Jun-21 18:00N 51°21' E 002°07'612.0
2018-Jun-21 17:30N 51°15' E 002°05'611.8
2018-Jun-21 17:01N 51°11' E 001°58'611.7
2018-Jun-21 16:30N 51°08' E 001°50'611.3
2018-Jun-21 16:00N 51°04' E 001°43'510.7
2018-Jun-21 15:30N 51°01' E 001°37'510.1
2018-Jun-21 15:00N 50°57' E 001°32'33 9.1
2018-Jun-21 11:25N 50°30' E 001°01'6 9.7
2018-Jun-21 10:46N 50°29' E 000°52'3 9.8
2018-Jun-21 10:26N 50°28' E 000°47'16 9.8
2018-Jun-21 08:51N 50°23' E 000°23'4110.0
2018-Jun-21 04:48N 50°11' W 000°37'411.2
2018-Jun-21 04:29N 50°10' W 000°43'711.8
2018-Jun-21 03:54N 50°09' W 000°53'512.5
2018-Jun-21 03:30N 50°07' W 001°01'1012.9
2018-Jun-21 02:44N 50°05' W 001°16'4213.7
2018-Jun-20 23:42N 49°55' W 002°18'512.4
2018-Jun-20 23:20N 49°53' W 002°25'512.2
2018-Jun-20 22:56N 49°52' W 002°32'911.9
2018-Jun-20 22:10N 49°50' W 002°46'211.8
2018-Jun-20 21:59N 49°49' W 002°49'611.3
2018-Jun-20 21:26N 49°47' W 002°58'511.0
2018-Jun-20 21:00N 49°45' W 003°05'510.8
2018-Jun-20 20:30N 49°42' W 003°12'4210.7
2018-Jun-20 16:34N 49°21' W 004°08'110.2
2018-Jun-20 16:30N 49°20' W 004°09'810.4
2018-Jun-20 15:46N 49°16' W 004°19'2510.4
2018-Jun-20 13:24N 49°03' W 004°51'2310.9
2018-Jun-20 11:19N 48°52' W 005°21'411.9
2018-Jun-20 11:00N 48°50' W 005°26'612.5
2018-Jun-20 10:30N 48°47' W 005°34'812.3
2018-Jun-20 09:53N 48°40' W 005°39'912.4
2018-Jun-20 09:08N 48°32' W 005°46'2511.6
2018-Jun-20 06:58N 48°07' W 005°52'2010.9
2018-Jun-20 05:09N 47°48' W 005°42'411.0
2018-Jun-20 04:47N 47°45' W 005°40'310.9
2018-Jun-20 04:30N 47°42' W 005°38'710.9
2018-Jun-20 03:52N 47°35' W 005°35'410.7
2018-Jun-20 03:30N 47°32' W 005°33'610.6
2018-Jun-20 02:54N 47°26' W 005°29'910.6
2018-Jun-20 02:06N 47°18' W 005°24'110.3
2018-Jun-20 02:00N 47°17' W 005°24'510.5
2018-Jun-20 01:30N 47°12' W 005°21'64 9.9
2018-Jun-19 19:04N 46°11' W 004°54'  
2018-Jun-12 21:33N 39°20' W 009°51'0 7.8
2018-Jun-12 21:30N 39°20' W 009°51'4 8.1
2018-Jun-12 21:00N 39°16' W 009°51'4 8.0
2018-Jun-12 20:30N 39°12' W 009°51'4 7.9
2018-Jun-12 20:00N 39°08' W 009°51'4 8.0
2018-Jun-12 19:30N 39°04' W 009°51'4 8.2
2018-Jun-12 19:00N 38°60' W 009°51'4 8.2
2018-Jun-12 18:30N 38°56' W 009°52'4 7.8
2018-Jun-12 18:00N 38°52' W 009°52'4 7.8
2018-Jun-12 17:30N 38°48' W 009°52'4 7.7
2018-Jun-12 17:00N 38°44' W 009°51'4 7.8
2018-Jun-12 16:30N 38°40' W 009°50'3 7.0
2018-Jun-12 16:00N 38°37' W 009°48'5 9.1
2018-Jun-12 15:30N 38°37' W 009°43'4 8.9
2018-Jun-12 15:00N 38°37' W 009°37'5 9.2
2018-Jun-12 14:30N 38°37' W 009°31'5 9.1
2018-Jun-12 14:00N 38°37' W 009°25'4 8.7
2018-Jun-12 13:30N 38°39' W 009°20'4 7.9
2018-Jun-12 13:00N 38°41' W 009°16'4 6.4
2018-Jun-12 12:26N 38°41' W 009°11'0 0.9
2018-Jun-12 11:58N 38°41' W 009°11'0 0.0
2018-Jun-12 10:58N 38°41' W 009°11'0 0.1
2018-Jun-12 10:28N 38°41' W 009°11'0 0.1
2018-Jun-12 09:58N 38°41' W 009°11'0 0.0
2018-Jun-12 09:28N 38°41' W 009°11'0 0.1
2018-Jun-12 08:07N 38°41' W 009°11'0 0.1
2018-Jun-12 07:58N 38°41' W 009°11'0 0.1
2018-Jun-12 07:16N 38°41' W 009°11'0 0.0
2018-Jun-12 06:52N 38°41' W 009°11'0 0.0
2018-Jun-12 05:43N 38°41' W 009°11'0 0.1
2018-Jun-12 05:19N 38°41' W 009°11'0 0.0
2018-Jun-12 03:58N 38°41' W 009°11'0 0.2
2018-Jun-12 03:28N 38°41' W 009°11'2 3.5
2018-Jun-12 03:00N 38°41' W 009°13'3 5.7
2018-Jun-12 02:30N 38°41' W 009°17'5 9.2
2018-Jun-12 02:00N 38°38' W 009°21'5 9.0
2018-Jun-12 01:30N 38°36' W 009°27'5 9.4
2018-Jun-12 01:00N 38°36' W 009°33'5 9.4
2018-Jun-12 00:30N 38°35' W 009°39'5 9.2
2018-Jun-12 00:00N 38°35' W 009°44'5 9.5
2018-Jun-11 23:30N 38°34' W 009°50'5 9.5
2018-Jun-11 23:00N 38°33' W 009°56'5 9.6
2018-Jun-11 22:31N 38°33' W 010°03'5 9.8
2018-Jun-11 22:00N 38°38' W 010°05'510.2
2018-Jun-11 21:30N 38°43' W 010°06'510.1
2018-Jun-11 21:00N 38°48' W 010°06'5 9.9
2018-Jun-11 20:30N 38°53' W 010°06'  
Track history (hours):
 
Tides and Currents Weather Stations Pressure Air Temp Water Temp Dewpoint Dewpoint Depression Visibility Wind Speed Wind Dir Waves Ship Positions

Torm Lilly

Last reported at 2018-Jun-21 20:01 UTC. Time now 2018-Jun-22 07:45 UTC.
Position N 51°41' E 002°30'.

Length 183 m; draft 7.6 m.

Type: Ship. MMSI: 220634000.

Date/timePositionNaut miles runAvg speedWind from/ knotsBaromVisibWave heightAir tempDewpointWater temp
2018-Jun-21 20:01N 51°41' E 002°30'713.2
2018-Jun-21 19:29N 51°36' E 002°23'612.7
2018-Jun-21 19:00N 51°31' E 002°17'612.5
2018-Jun-21 18:30N 51°26' E 002°10'611.8
2018-Jun-21 18:00N 51°21' E 002°07'612.0
2018-Jun-21 17:30N 51°15' E 002°05'611.8
2018-Jun-21 17:01N 51°11' E 001°58'611.7
2018-Jun-21 16:30N 51°08' E 001°50'611.3
2018-Jun-21 16:00N 51°04' E 001°43'510.7
2018-Jun-21 15:30N 51°01' E 001°37'510.1
2018-Jun-21 15:00N 50°57' E 001°32'33 9.1
2018-Jun-21 11:25N 50°30' E 001°01'6 9.7
2018-Jun-21 10:46N 50°29' E 000°52'3 9.8
2018-Jun-21 10:26N 50°28' E 000°47'16 9.8
2018-Jun-21 08:51N 50°23' E 000°23'4110.0
2018-Jun-21 04:48N 50°11' W 000°37'411.2
2018-Jun-21 04:29N 50°10' W 000°43'711.8
2018-Jun-21 03:54N 50°09' W 000°53'512.5
2018-Jun-21 03:30N 50°07' W 001°01'1012.9
2018-Jun-21 02:44N 50°05' W 001°16'4213.7
2018-Jun-20 23:42N 49°55' W 002°18'512.4
2018-Jun-20 23:20N 49°53' W 002°25'512.2
2018-Jun-20 22:56N 49°52' W 002°32'911.9
2018-Jun-20 22:10N 49°50' W 002°46'211.8
2018-Jun-20 21:59N 49°49' W 002°49'611.3
2018-Jun-20 21:26N 49°47' W 002°58'511.0
2018-Jun-20 21:00N 49°45' W 003°05'510.8
2018-Jun-20 20:30N 49°42' W 003°12'4210.7
2018-Jun-20 16:34N 49°21' W 004°08'110.2
2018-Jun-20 16:30N 49°20' W 004°09'810.4
2018-Jun-20 15:46N 49°16' W 004°19'2510.4
2018-Jun-20 13:24N 49°03' W 004°51'2310.9
2018-Jun-20 11:19N 48°52' W 005°21'411.9
2018-Jun-20 11:00N 48°50' W 005°26'612.5
2018-Jun-20 10:30N 48°47' W 005°34'812.3
2018-Jun-20 09:53N 48°40' W 005°39'912.4
2018-Jun-20 09:08N 48°32' W 005°46'2511.6
2018-Jun-20 06:58N 48°07' W 005°52'2010.9
2018-Jun-20 05:09N 47°48' W 005°42'411.0
2018-Jun-20 04:47N 47°45' W 005°40'310.9
2018-Jun-20 04:30N 47°42' W 005°38'710.9
2018-Jun-20 03:52N 47°35' W 005°35'410.7
2018-Jun-20 03:30N 47°32' W 005°33'610.6
2018-Jun-20 02:54N 47°26' W 005°29'910.6
2018-Jun-20 02:06N 47°18' W 005°24'110.3
2018-Jun-20 02:00N 47°17' W 005°24'510.5
2018-Jun-20 01:30N 47°12' W 005°21'64 9.9
2018-Jun-19 19:04N 46°11' W 004°54'  
2018-Jun-12 21:33N 39°20' W 009°51'0 7.8
2018-Jun-12 21:30N 39°20' W 009°51'4 8.1
2018-Jun-12 21:00N 39°16' W 009°51'4 8.0
2018-Jun-12 20:30N 39°12' W 009°51'4 7.9
2018-Jun-12 20:00N 39°08' W 009°51'4 8.0
2018-Jun-12 19:30N 39°04' W 009°51'4 8.2
2018-Jun-12 19:00N 38°60' W 009°51'4 8.2
2018-Jun-12 18:30N 38°56' W 009°52'4 7.8
2018-Jun-12 18:00N 38°52' W 009°52'4 7.8
2018-Jun-12 17:30N 38°48' W 009°52'4 7.7
2018-Jun-12 17:00N 38°44' W 009°51'4 7.8
2018-Jun-12 16:30N 38°40' W 009°50'3 7.0
2018-Jun-12 16:00N 38°37' W 009°48'5 9.1
2018-Jun-12 15:30N 38°37' W 009°43'4 8.9
2018-Jun-12 15:00N 38°37' W 009°37'5 9.2
2018-Jun-12 14:30N 38°37' W 009°31'5 9.1
2018-Jun-12 14:00N 38°37' W 009°25'4 8.7
2018-Jun-12 13:30N 38°39' W 009°20'4 7.9
2018-Jun-12 13:00N 38°41' W 009°16'4 6.4
2018-Jun-12 12:26N 38°41' W 009°11'0 0.9
2018-Jun-12 11:58N 38°41' W 009°11'0 0.0
2018-Jun-12 10:58N 38°41' W 009°11'0 0.1
2018-Jun-12 10:28N 38°41' W 009°11'0 0.1
2018-Jun-12 09:58N 38°41' W 009°11'0 0.0
2018-Jun-12 09:28N 38°41' W 009°11'0 0.1
2018-Jun-12 08:07N 38°41' W 009°11'0 0.1
2018-Jun-12 07:58N 38°41' W 009°11'0 0.1
2018-Jun-12 07:16N 38°41' W 009°11'0 0.0
2018-Jun-12 06:52N 38°41' W 009°11'0 0.0
2018-Jun-12 05:43N 38°41' W 009°11'0 0.1
2018-Jun-12 05:19N 38°41' W 009°11'0 0.0
2018-Jun-12 03:58N 38°41' W 009°11'0 0.2
2018-Jun-12 03:28N 38°41' W 009°11'2 3.5
2018-Jun-12 03:00N 38°41' W 009°13'3 5.7
2018-Jun-12 02:30N 38°41' W 009°17'5 9.2
2018-Jun-12 02:00N 38°38' W 009°21'5 9.0
2018-Jun-12 01:30N 38°36' W 009°27'5 9.4
2018-Jun-12 01:00N 38°36' W 009°33'5 9.4
2018-Jun-12 00:30N 38°35' W 009°39'5 9.2
2018-Jun-12 00:00N 38°35' W 009°44'5 9.5
2018-Jun-11 23:30N 38°34' W 009°50'5 9.5
2018-Jun-11 23:00N 38°33' W 009°56'5 9.6
2018-Jun-11 22:31N 38°33' W 010°03'5 9.8
2018-Jun-11 22:00N 38°38' W 010°05'510.2
2018-Jun-11 21:30N 38°43' W 010°06'510.1
2018-Jun-11 21:00N 38°48' W 010°06'5 9.9
2018-Jun-11 20:30N 38°53' W 010°06'  

Dump ship's entire track history